Time;durP1;ratioP1;P1;durP2;ratioP2;P2;SDS_P1;SDS_P2;PMS_P1;PMS_P2;Temp;Humidity;BMP_temperature;BMP_pressure;BME280_temperature;BME280_humidity;BME280_pressure;Samples;Min_cycle;Max_cycle;Signal;HPM_P1;HPM_P2
2022/07/08 06:17:53;;;;;;;;;2.33;2.33;;;;;19.68;90.75;101961.09;6225411;22;45983;31
2022/07/08 06:20:18;;;;;;;;;2.00;2.00;;;;;19.70;90.47;101966.47;6237350;22;45353;-89
2022/07/08 06:22:44;;;;;;;;;3.00;2.00;;;;;19.69;90.79;101970.00;6215326;22;54908;-93
2022/07/08 06:25:09;;;;;;;;;3.00;3.00;;;;;19.73;90.58;101982.53;6218336;22;48157;-93
2022/07/08 06:27:35;;;;;;;;;5.00;2.00;;;;;19.73;90.01;101980.78;6214815;22;46007;-93
2022/07/08 06:30:01;;;;;;;;;4.00;3.33;;;;;19.73;89.97;101983.44;6213893;22;45438;-92
2022/07/08 06:32:26;;;;;;;;;4.00;3.00;;;;;19.75;89.57;101983.47;6213491;22;45482;-93
2022/07/08 06:34:51;;;;;;;;;2.00;2.00;;;;;19.77;89.47;101987.97;6211801;22;63227;-92
2022/07/08 06:37:17;;;;;;;;;3.00;3.00;;;;;19.80;89.14;101994.25;6213426;22;45434;-92
2022/07/08 06:39:42;;;;;;;;;5.33;3.00;;;;;19.84;88.84;102001.47;6241778;22;45243;-96
2022/07/08 06:42:08;;;;;;;;;5.33;2.00;;;;;19.87;88.81;102001.53;6241005;22;45326;-92
2022/07/08 06:44:33;;;;;;;;;4.00;3.67;;;;;19.86;89.12;102000.66;6217164;22;48072;-88
2022/07/08 06:46:59;;;;;;;;;4.00;3.00;;;;;19.93;88.73;101998.13;6248589;22;46044;-92
2022/07/08 06:49:26;;;;;;;;;3.00;1.00;;;;;20.01;88.66;102001.00;6222018;22;45198;-94
2022/07/08 06:51:52;;;;;;;;;6.00;4.00;;;;;20.00;88.34;101997.44;6247774;22;45432;-96
2022/07/08 06:54:35;;;;;;;;;2.00;2.00;;;;;20.06;88.63;101999.38;6253411;22;46524;-94
2022/07/08 06:57:02;;;;;;;;;4.00;2.33;;;;;20.11;88.22;102013.72;6244399;22;45287;-95
2022/07/08 06:59:28;;;;;;;;;4.00;3.00;;;;;20.13;87.88;102012.03;6219345;22;45267;-94
2022/07/08 07:01:53;;;;;;;;;3.00;2.00;;;;;20.13;87.79;101996.03;6221798;22;45252;-92
2022/07/08 07:04:19;;;;;;;;;2.33;2.33;;;;;20.21;87.60;102013.13;6251093;22;45298;-96
2022/07/08 07:06:44;;;;;;;;;3.00;2.00;;;;;20.25;87.26;102006.13;6221599;22;45263;-96
2022/07/08 07:09:09;;;;;;;;;3.33;3.00;;;;;20.30;87.30;102008.91;6259665;22;44774;-96
2022/07/08 07:11:35;;;;;;;;;2.00;2.00;;;;;20.40;87.03;102018.03;6260856;22;44848;-96
2022/07/08 07:14:01;;;;;;;;;4.00;1.00;;;;;20.45;87.03;102011.03;6257991;22;45239;-96
2022/07/08 07:16:27;;;;;;;;;6.00;1.00;;;;;20.41;86.53;101999.38;6212009;22;44928;-95
2022/07/08 07:39:02;;;;;;;;;2.67;2.67;;;;;20.52;85.49;102004.06;6169733;22;1789357;-96
2022/07/08 07:41:36;;;;;;;;;3.67;3.00;;;;;20.68;85.35;102012.44;6230039;22;44958;-96
2022/07/08 07:44:10;;;;;;;;;1.67;1.67;;;;;20.89;85.20;102041.41;6201571;22;45308;-95
2022/07/08 07:46:35;;;;;;;;;3.00;2.67;;;;;20.95;84.11;102044.19;6204030;22;45290;-94
2022/07/08 07:49:01;;;;;;;;;2.00;2.00;;;;;20.99;84.56;102031.81;6195565;23;46259;-90
2022/07/08 07:51:27;;;;;;;;;4.33;3.67;;;;;21.07;83.94;102027.59;6194428;23;45370;-89
2022/07/08 07:53:55;;;;;;;;;3.33;3.33;;;;;21.13;84.79;102018.81;6193000;23;45292;-91
2022/07/08 07:56:20;;;;;;;;;5.00;3.33;;;;;21.31;84.40;102034.31;6198848;22;45195;-89
2022/07/08 07:58:46;;;;;;;;;3.00;2.00;;;;;21.38;84.11;102024.69;6195423;23;47399;-92
2022/07/08 08:01:11;;;;;;;;;3.00;3.00;;;;;21.46;83.85;102027.50;6194126;23;45972;-90
2022/07/08 08:03:36;;;;;;;;;3.67;3.00;;;;;21.58;84.33;102025.94;6192562;23;45352;-91
2022/07/08 08:06:03;;;;;;;;;2.00;2.00;;;;;21.68;83.12;102046.63;6197284;23;44819;-90
2022/07/08 08:08:31;;;;;;;;;2.00;2.00;;;;;21.74;83.34;102040.50;6194067;23;48318;-90
2022/07/08 08:10:59;;;;;;;;;2.00;2.00;;;;;21.85;82.90;102046.94;6197985;22;45300;-90
2022/07/08 08:13:24;;;;;;;;;4.33;3.00;;;;;21.92;82.80;102036.41;6197728;22;45338;-89
2022/07/08 08:15:50;;;;;;;;;3.33;3.00;;;;;21.99;82.83;102039.22;6194265;22;45338;-90
2022/07/08 08:18:16;;;;;;;;;4.33;3.00;;;;;22.05;83.31;102029.53;6195683;23;46492;-91
2022/07/08 08:20:42;;;;;;;;;4.00;4.00;;;;;22.18;82.54;102038.66;6195969;22;45191;-87
2022/07/08 08:23:09;;;;;;;;;7.67;4.00;;;;;22.27;82.80;102037.91;6192454;22;45274;-90
2022/07/08 08:25:35;;;;;;;;;3.33;3.33;;;;;22.33;82.47;102038.00;6194130;23;45314;-89
2022/07/08 08:28:01;;;;;;;;;6.67;4.00;;;;;22.42;82.46;102039.97;6194147;22;46044;-89
2022/07/08 08:30:27;;;;;;;;;4.00;3.00;;;;;22.52;82.24;102041.88;6197984;23;45195;-89
2022/07/08 08:32:53;;;;;;;;;4.67;3.00;;;;;22.60;82.62;102044.66;6197823;22;45364;-90
2022/07/08 08:35:19;;;;;;;;;5.33;4.00;;;;;22.71;81.87;102046.66;6196407;23;45200;-91
2022/07/08 08:37:44;;;;;;;;;5.67;4.67;;;;;22.76;81.22;102043.19;6205262;22;50648;-90
2022/07/08 08:40:11;;;;;;;;;5.67;4.00;;;;;22.86;81.56;102045.97;6192460;22;45649;-91
2022/07/08 08:42:38;;;;;;;;;4.33;3.00;;;;;22.95;81.32;102046.13;6218355;22;45301;-90
2022/07/08 08:45:05;;;;;;;;;5.33;5.33;;;;;23.01;81.32;102025.69;6220692;22;45254;-91
2022/07/08 08:47:32;;;;;;;;;2.67;2.67;;;;;23.09;81.12;102035.59;6221801;22;45971;-93
2022/07/08 08:52:53;;;;;;;;;5.33;4.00;;;;;23.21;80.67;102032.19;6222924;22;45256;-93
2022/07/08 08:55:30;;;;;;;;;5.00;3.67;;;;;23.30;80.16;102038.53;6196286;22;44840;-92
2022/07/08 08:58:05;;;;;;;;;5.67;4.33;;;;;23.36;79.68;102038.63;6191961;22;47084;-93
2022/07/08 09:00:33;;;;;;;;;4.33;4.33;;;;;23.46;80.00;102044.09;6194923;22;45289;-91
2022/07/08 09:03:00;;;;;;;;;4.00;4.00;;;;;23.48;79.23;102040.53;6141676;22;45733;-91
2022/07/08 09:05:28;;;;;;;;;5.00;5.00;;;;;23.57;79.61;102034.44;6192381;22;45657;-91
2022/07/08 09:07:54;;;;;;;;;5.67;4.00;;;;;23.58;78.86;102040.69;6196174;22;46924;-90
2022/07/08 09:10:21;;;;;;;;;4.67;4.00;;;;;23.63;78.90;102042.53;6195988;22;44712;-91
2022/07/08 09:13:12;;;;;;;;;5.00;4.67;;;;;23.67;78.62;102035.44;6196083;22;45256;-93
2022/07/08 09:15:43;;;;;;;;;4.00;2.67;;;;;23.77;78.39;102045.38;6218517;22;44805;-92
2022/07/08 09:18:10;;;;;;;;;4.00;3.67;;;;;23.82;77.70;102056.13;6196979;22;47184;-93
2022/07/08 09:20:45;;;;;;;;;5.00;5.00;;;;;23.92;77.95;102056.22;6198195;22;45425;-90
2022/07/08 09:23:13;;;;;;;;;6.00;4.50;;;;;23.96;77.55;102050.03;6221661;22;45293;-93
2022/07/08 09:25:40;;;;;;;;;4.00;3.67;;;;;24.06;76.93;102062.66;6222890;22;44819;-91
2022/07/08 09:28:05;;;;;;;;;5.00;5.00;;;;;24.13;76.58;102057.31;6220698;22;45524;-91
2022/07/08 09:30:31;;;;;;;;;7.33;6.00;;;;;24.19;76.09;102062.75;6193347;22;45283;-91
2022/07/08 09:33:01;;;;;;;;;6.67;5.33;;;;;24.22;77.02;102205.84;6221675;22;45160;-92
2022/07/08 09:35:56;;;;;;;;;4.00;4.00;;;;;24.36;76.96;102315.13;6172330;22;45275;-93
2022/07/08 09:38:23;;;;;;;;;6.67;5.00;;;;;24.52;76.50;102417.31;6190966;22;47852;-89
2022/07/08 09:40:55;;;;;;;;;5.67;5.67;;;;;24.63;76.50;102452.34;6223395;22;45185;-91
2022/07/08 09:43:21;;;;;;;;;4.33;4.33;;;;;24.75;76.27;102484.72;6198939;22;45322;-91
2022/07/08 09:45:47;;;;;;;;;4.33;4.33;;;;;24.91;76.34;102501.06;6197529;22;45314;-91
2022/07/08 09:48:15;;;;;;;;;6.00;5.00;;;;;25.13;75.88;102513.91;6224426;22;45801;-88
2022/07/08 09:50:44;;;;;;;;;6.00;3.67;;;;;25.33;75.69;102532.94;6201499;22;45312;-90
2022/07/08 09:53:22;;;;;;;;;4.67;4.33;;;;;25.42;75.53;102546.47;6201223;22;45308;-91
2022/07/08 09:55:54;;;;;;;;;5.33;5.00;;;;;25.58;75.28;102565.47;6224125;22;45365;-89
2022/07/08 09:58:22;;;;;;;;;5.00;4.67;;;;;25.91;74.46;102605.25;6188578;22;46160;-93
2022/07/08 10:00:49;;;;;;;;;6.33;3.67;;;;;26.73;74.96;102588.03;6192088;22;45763;-89
2022/07/08 10:03:16;;;;;;;;;4.00;4.00;;;;;27.88;74.88;102595.72;6217515;22;45295;-92
2022/07/08 10:05:42;;;;;;;;;5.00;4.00;;;;;29.14;74.00;102633.53;6187380;22;45527;-91
2022/07/08 10:08:09;;;;;;;;;7.00;5.67;;;;;30.44;74.38;102631.88;6217159;22;46320;-92
2022/07/08 10:10:36;;;;;;;;;3.67;3.33;;;;;31.85;73.59;102672.81;6219241;22;45285;-92
2022/07/08 10:13:03;;;;;;;;;4.00;4.00;;;;;32.93;72.24;102708.22;6221404;22;45230;-91
2022/07/08 10:15:31;;;;;;;;;7.67;5.00;;;;;33.84;69.15;102760.91;6217742;22;45251;-92
2022/07/08 10:18:05;;;;;;;;;7.33;5.33;;;;;34.66;66.69;102781.72;6193821;22;47227;-93
2022/07/08 10:20:33;;;;;;;;;5.00;4.00;;;;;35.38;65.22;102790.78;6225710;22;46649;-92
2022/07/08 10:23:05;;;;;;;;;5.00;5.00;;;;;36.26;63.96;102806.44;6221822;22;45546;-93
2022/07/08 10:25:34;;;;;;;;;4.50;3.50;;;;;37.74;62.29;102811.41;6170325;22;45323;-93
2022/07/08 10:28:10;;;;;;;;;3.00;2.33;;;;;39.53;59.88;102834.25;6193615;22;48141;-93
2022/07/08 10:30:52;;;;;;;;;4.67;4.00;;;;;41.09;57.91;102838.59;6194338;22;45802;-95
2022/07/08 10:33:19;;;;;;;;;3.00;2.00;;;;;42.10;56.30;102841.47;6220677;22;45221;-93
2022/07/08 10:36:08;;;;;;;;;3.33;3.00;;;;;42.54;52.65;102856.41;6189950;22;45309;-93
2022/07/08 10:38:41;;;;;;;;;3.00;3.00;;;;;43.41;52.15;102848.47;6201920;22;46195;-92
2022/07/08 10:41:06;;;;;;;;;5.00;3.67;;;;;44.71;49.84;102851.09;6190701;22;45353;-92
2022/07/08 10:43:32;;;;;;;;;3.33;3.33;;;;;46.01;49.05;102846.53;6220155;22;45316;-90
2022/07/08 10:46:12;;;;;;;;;4.33;3.00;;;;;47.29;46.85;102849.69;6191411;22;45399;-90
2022/07/08 10:48:40;;;;;;;;;2.00;2.00;;;;;48.31;45.30;102855.28;6190963;22;47618;-90
2022/07/08 10:51:29;;;;;;;;;4.67;1.00;;;;;49.22;44.04;102854.03;6212718;22;45448;-90
2022/07/08 10:53:56;;;;;;;;;1.00;1.00;;;;;50.31;42.64;102849.66;6184870;22;45409;-89
2022/07/08 10:56:50;;;;;;;;;2.67;1.00;;;;;51.40;41.17;102868.16;6210127;22;45361;-88
2022/07/08 10:59:20;;;;;;;;;1.67;1.67;;;;;52.28;39.96;102869.72;6210573;22;46138;-88
2022/07/08 11:01:55;;;;;;;;;1.33;1.33;;;;;53.00;37.84;102856.66;6212323;22;45473;-90
2022/07/08 11:04:33;;;;;;;;;0.00;0.00;;;;;53.66;36.97;102863.63;6186439;22;45349;-88
2022/07/08 11:07:17;;;;;;;;;2.33;2.00;;;;;54.20;35.88;102852.16;6210935;22;45546;-90
2022/07/08 11:09:44;;;;;;;;;3.00;2.67;;;;;54.62;34.51;102853.06;6213306;22;46267;-89
2022/07/08 11:12:14;;;;;;;;;0.67;0.67;;;;;55.05;34.28;102858.41;6215697;22;45255;-90
2022/07/08 11:14:44;;;;;;;;;0.00;0.00;;;;;55.49;33.62;102856.13;6216588;22;45259;-90
2022/07/08 11:17:14;;;;;;;;;1.00;1.00;;;;;55.99;32.93;102860.63;6185883;22;45290;-87
2022/07/08 11:19:41;;;;;;;;;2.00;2.00;;;;;56.47;31.86;102855.84;6210182;22;46405;-89
2022/07/08 11:22:08;;;;;;;;;2.00;2.00;;;;;56.88;32.08;102848.88;6183223;22;45603;-89
2022/07/08 11:24:36;;;;;;;;;1.67;1.67;;;;;57.27;31.37;102849.66;6182169;22;45224;-89
2022/07/08 11:27:01;;;;;;;;;1.00;1.00;;;;;57.62;30.26;102850.09;6183216;22;45318;-88
2022/07/08 11:29:29;;;;;;;;;1.67;1.67;;;;;57.87;29.53;102842.13;6209470;22;46269;-88
2022/07/08 11:31:59;;;;;;;;;1.00;1.00;;;;;58.13;29.92;102845.38;6185758;22;45336;-89
2022/07/08 11:34:25;;;;;;;;;1.00;1.00;;;;;58.40;28.47;102840.00;6183153;22;45337;-88
2022/07/08 11:37:02;;;;;;;;;1.00;1.00;;;;;58.71;27.30;102835.84;6209586;22;45588;-88
2022/07/08 11:39:28;;;;;;;;;1.00;1.00;;;;;58.85;27.87;102826.59;6210851;22;45520;-89
2022/07/08 11:41:54;;;;;;;;;1.00;1.00;;;;;59.15;28.20;102829.16;6185538;22;45272;-89
2022/07/08 11:44:22;;;;;;;;;1.00;1.00;;;;;59.50;27.29;102833.84;6212110;22;45336;-90
2022/07/08 11:46:51;;;;;;;;;1.67;0.67;;;;;59.76;28.24;102828.47;6209333;22;45412;-89
2022/07/08 11:49:17;;;;;;;;;1.00;1.00;;;;;59.95;27.02;102825.88;6180026;22;46923;-90
2022/07/08 11:52:00;;;;;;;;;0.00;0.00;;;;;60.29;26.20;102838.06;6207417;22;45341;-91
2022/07/08 11:54:29;;;;;;;;;0.00;0.00;;;;;60.57;25.57;102821.91;6184427;22;45346;-90
2022/07/08 11:56:56;;;;;;;;;0.00;0.00;;;;;60.81;25.87;102825.09;6210441;22;45369;-89
2022/07/08 11:59:32;;;;;;;;;1.00;0.67;;;;;61.00;25.46;102817.66;6212983;22;46512;-91
2022/07/08 12:01:59;;;;;;;;;0.00;0.00;;;;;61.25;24.93;102825.34;6183626;22;46173;-92
2022/07/08 12:04:25;;;;;;;;;0.67;0.67;;;;;61.51;24.57;102824.56;6185659;22;45350;-92
2022/07/08 12:06:57;;;;;;;;;1.33;1.33;;;;;61.69;24.87;102823.78;6206664;22;45650;-91
2022/07/08 12:09:23;;;;;;;;;1.00;0.00;;;;;62.07;24.98;102821.06;6210119;22;46186;-90
2022/07/08 12:11:51;;;;;;;;;0.33;0.00;;;;;62.43;23.99;102810.88;6212148;22;45373;-90
2022/07/08 12:14:17;;;;;;;;;0.00;0.00;;;;;62.68;24.30;102801.41;6212609;22;45394;-90
2022/07/08 12:17:01;;;;;;;;;0.67;0.67;;;;;62.92;23.66;102811.22;6185067;22;45306;-91
2022/07/08 12:19:31;;;;;;;;;1.33;1.00;;;;;63.10;24.08;102810.31;6211743;22;45514;-88
2022/07/08 12:22:01;;;;;;;;;0.33;0.00;;;;;63.30;23.71;102798.66;6216450;22;45295;-88
2022/07/08 12:24:41;;;;;;;;;0.00;0.00;;;;;63.64;23.66;102802.97;6184336;22;45450;-89
2022/07/08 12:27:08;;;;;;;;;0.00;0.00;;;;;64.02;23.64;102815.03;6190841;22;45438;-90
2022/07/08 12:29:38;;;;;;;;;0.67;0.67;;;;;64.34;22.67;102802.34;6185998;22;47099;-90
2022/07/08 12:32:04;;;;;;;;;0.00;0.00;;;;;64.56;22.71;102802.59;6215644;22;45434;-89
2022/07/08 12:34:30;;;;;;;;;0.67;0.00;;;;;64.58;22.57;102785.22;6218009;22;45289;-89
2022/07/08 12:37:13;;;;;;;;;0.00;0.00;;;;;64.63;22.68;102784.44;6183560;22;45822;-91
2022/07/08 12:40:23;;;;;;;;;1.00;1.00;;;;;64.67;22.32;102780.81;6223358;22;45363;-94
2022/07/08 13:29:30;;;;;;;;;0.00;0.00;;;;;68.37;19.86;102741.00;6110884;22;46451;-92
2022/07/08 13:40:09;;;;;;;;;0.00;0.00;;;;;68.00;18.94;102732.22;6126446;22;45885;-92
2022/07/08 13:42:39;;;;;;;;;0.00;0.00;;;;;67.63;19.09;102739.78;6191781;22;45359;-94
2022/07/08 13:50:16;;;;;;;;;0.00;0.00;;;;;66.87;19.00;102711.91;6137826;22;45540;-94
2022/07/08 13:52:42;;;;;;;;;0.33;0.00;;;;;66.65;19.27;102705.13;6116357;23;46655;-94
2022/07/08 13:55:09;;;;;;;;;0.00;0.00;;;;;66.70;19.66;102712.03;6126657;23;44762;-95
2022/07/08 14:03:12;;;;;;;;;1.50;0.75;;;;;66.20;18.91;102696.59;6227740;22;46310;-93
2022/07/08 14:05:43;;;;;;;;;0.00;0.00;;;;;65.74;19.57;102699.66;6189281;22;45379;-93
2022/07/08 14:08:08;;;;;;;;;0.00;0.00;;;;;65.59;19.38;102718.28;6147049;23;44819;-92
2022/07/08 14:15:46;;;;;;;;;0.00;0.00;;;;;65.48;18.42;102693.56;6153387;23;45953;-93
2022/07/08 14:18:22;;;;;;;;;0.00;0.00;;;;;65.08;18.88;102685.75;6170635;22;44734;-95
2022/07/08 14:20:47;;;;;;;;;0.00;0.00;;;;;64.86;19.87;102686.53;6147576;23;45216;-94
2022/07/08 14:23:24;;;;;;;;;0.00;0.00;;;;;64.87;20.25;102682.56;6195549;23;45388;-95
2022/07/08 14:25:49;;;;;;;;;0.00;0.00;;;;;65.11;19.72;102692.94;6138518;23;45316;-96
2022/07/08 14:28:15;;;;;;;;;1.00;0.00;;;;;65.13;19.21;102696.44;6196695;22;45355;-93
2022/07/08 14:30:40;;;;;;;;;0.50;0.00;;;;;65.21;19.52;102695.97;6172470;23;45413;-93
2022/07/08 14:33:06;;;;;;;;;0.00;0.00;;;;;65.23;19.00;102690.03;6167681;23;47291;-93
2022/07/08 14:35:31;;;;;;;;;0.00;0.00;;;;;65.21;19.18;102673.13;6195938;23;45287;-93
2022/07/08 14:37:58;;;;;;;;;0.25;0.25;;;;;65.15;19.41;102694.16;6193610;23;45190;-91
2022/07/08 14:40:26;;;;;;;;;0.00;0.00;;;;;64.96;19.40;102673.53;6198827;23;44871;-93
2022/07/08 14:42:51;;;;;;;;;0.00;0.00;;;;;64.71;19.28;102669.97;6171411;23;46988;-93
2022/07/08 14:45:18;;;;;;;;;0.25;0.25;;;;;64.32;19.56;102665.78;6163128;23;45366;-95
2022/07/08 14:47:44;;;;;;;;;26.50;25.00;;;;;63.82;19.47;102684.34;6190245;23;44722;-91
2022/07/08 14:50:09;;;;;;;;;12.00;12.00;;;;;61.68;19.78;102677.22;6189524;23;45323;-91
2022/07/08 14:52:35;;;;;;;;;0.00;0.00;;;;;58.57;20.84;102672.91;6190402;23;45453;-93
2022/07/08 14:55:00;;;;;;;;;0.00;0.00;;;;;55.51;20.98;102650.56;6165424;23;45240;-88
2022/07/08 14:58:07;;;;;;;;;0.00;0.00;;;;;52.06;22.50;102646.06;6192067;23;45499;-90
2022/07/08 15:00:33;;;;;;;;;0.00;0.00;;;;;49.53;23.81;102664.44;6130653;23;45350;-93
2022/07/08 15:02:58;;;;;;;;;1.33;0.00;;;;;47.48;24.46;102652.72;6126990;23;46070;-89
2022/07/08 15:05:23;;;;;;;;;1.00;1.00;;;;;45.81;25.78;102646.50;6127212;23;45311;-93
2022/07/08 15:07:48;;;;;;;;;0.00;0.00;;;;;44.40;26.69;102643.78;6104059;23;45743;-94
2022/07/08 15:10:15;;;;;;;;;0.67;0.00;;;;;43.14;27.49;102656.78;6107312;23;45505;-91
2022/07/08 15:12:41;;;;;;;;;2.00;0.00;;;;;41.97;27.93;102653.78;6128349;23;45822;-87
2022/07/08 15:15:10;;;;;;;;;0.00;0.00;;;;;40.86;28.82;102649.91;6123326;23;45726;-89
2022/07/08 15:17:36;;;;;;;;;0.00;0.00;;;;;39.86;29.76;102639.47;6094039;23;45478;-85
2022/07/08 15:20:01;;;;;;;;;0.00;0.00;;;;;39.04;29.82;102639.69;6123805;23;45408;-88
2022/07/08 15:22:26;;;;;;;;;0.00;0.00;;;;;38.24;30.74;102635.88;6119747;23;45404;-87
2022/07/08 15:24:52;;;;;;;;;0.00;0.00;;;;;37.53;31.63;102636.00;6118581;23;45322;-89
2022/07/08 15:27:38;;;;;;;;;0.00;0.00;;;;;36.85;33.02;102644.94;6126773;23;45496;-94
2022/07/08 15:30:22;;;;;;;;;0.33;0.00;;;;;36.27;32.99;102636.91;6113470;23;45432;-96
2022/07/08 15:37:58;;;;;;;;;0.00;0.00;;;;;34.98;35.28;102613.63;6198052;22;45371;-96
2022/07/08 15:40:23;;;;;;;;;1.00;1.00;;;;;34.69;35.77;102622.63;6168318;23;45283;-95
2022/07/08 15:42:57;;;;;;;;;0.00;0.00;;;;;34.33;36.62;102616.28;6184597;22;61185;-96
2022/07/08 15:45:26;;;;;;;;;0.00;0.00;;;;;33.92;36.94;102589.13;6145435;22;45319;-96
2022/07/08 15:47:53;;;;;;;;;0.00;0.00;;;;;33.68;37.12;102609.63;6169955;23;45256;-96
2022/07/08 15:50:23;;;;;;;;;0.00;0.00;;;;;33.34;37.03;102596.81;6171977;23;45267;-95
2022/07/08 15:52:48;;;;;;;;;1.00;0.00;;;;;33.12;37.35;102586.34;6138715;23;47169;-94
2022/07/08 15:55:16;;;;;;;;;0.00;0.00;;;;;32.95;37.38;102597.59;6178760;22;50364;-96
2022/07/08 15:57:42;;;;;;;;;0.00;0.00;;;;;32.64;38.18;102577.34;6232021;22;45155;-96
2022/07/08 16:00:11;;;;;;;;;0.00;0.00;;;;;32.43;38.83;102576.81;6230623;22;45313;-96
2022/07/08 16:02:43;;;;;;;;;0.00;0.00;;;;;32.30;38.70;102585.19;6225913;22;45412;-94
2022/07/08 16:05:08;;;;;;;;;0.00;0.00;;;;;32.19;38.90;102595.34;6200455;22;45243;-96
2022/07/08 16:07:34;;;;;;;;;0.00;0.00;;;;;31.98;39.66;102592.06;6229939;22;45300;-96
2022/07/08 16:10:05;;;;;;;;;0.00;0.00;;;;;31.94;39.54;102599.34;6167614;22;45283;-95
2022/07/08 16:12:33;;;;;;;;;0.00;0.00;;;;;31.66;39.54;102578.06;6116890;23;46439;-95
2022/07/08 16:15:02;;;;;;;;;0.00;0.00;;;;;31.53;40.06;102577.34;6109908;23;45153;-96
2022/07/08 16:17:27;;;;;;;;;0.00;0.00;;;;;31.47;40.47;102578.31;6111718;23;45279;-93
2022/07/08 16:19:53;;;;;;;;;0.00;0.00;;;;;31.36;40.37;102581.19;6137799;23;45309;-94
2022/07/08 16:22:21;;;;;;;;;0.00;0.00;;;;;31.20;40.52;102567.84;6141233;23;46075;-96
2022/07/08 16:24:49;;;;;;;;;0.00;0.00;;;;;31.13;41.24;102568.84;6113155;23;45175;-87
2022/07/08 16:30:02;;;;;;;;;1.00;1.00;;;;;31.05;40.90;102584.31;6157821;22;45893;-95
2022/07/08 16:32:30;;;;;;;;;0.00;0.00;;;;;30.88;41.35;102585.38;6168153;23;45164;-95
2022/07/08 16:37:51;;;;;;;;;0.00;0.00;;;;;30.60;42.21;102558.56;6191792;22;45477;-96
2022/07/08 16:43:10;;;;;;;;;0.00;0.00;;;;;30.42;42.56;102560.56;6156057;22;46821;-92
2022/07/08 16:45:36;;;;;;;;;1.00;0.67;;;;;30.39;42.95;102566.91;6166317;23;45635;-96
2022/07/08 16:48:01;;;;;;;;;0.00;0.00;;;;;30.31;43.50;102566.97;6166957;22;45268;-92
2022/07/08 16:50:26;;;;;;;;;2.00;0.00;;;;;30.28;43.09;102579.66;6197772;23;45061;-95
2022/07/08 16:52:52;;;;;;;;;0.00;0.00;;;;;30.06;43.66;102548.22;6173362;22;47091;-96
2022/07/08 16:55:17;;;;;;;;;0.00;0.00;;;;;30.11;43.63;102573.47;6161637;23;46763;-96
2022/07/08 17:03:02;;;;;;;;;0.00;0.00;;;;;29.78;44.17;102541.25;6201040;23;45134;-93
2022/07/08 17:05:29;;;;;;;;;0.00;0.00;;;;;29.82;44.57;102554.75;6172940;23;44818;-91
2022/07/08 17:07:55;;;;;;;;;0.67;0.67;;;;;29.71;44.79;102546.69;6194110;23;45480;-90
2022/07/08 17:10:20;;;;;;;;;0.00;0.00;;;;;29.73;45.43;102562.03;6156696;23;45296;-90
2022/07/08 17:12:46;;;;;;;;;0.00;0.00;;;;;29.64;45.28;102554.81;6183116;23;45490;-88
2022/07/08 17:15:12;;;;;;;;;1.00;0.00;;;;;29.59;45.16;102540.44;6155002;23;45503;-88
2022/07/08 17:17:40;;;;;;;;;0.00;0.00;;;;;29.65;45.71;102562.06;6159887;23;45544;-91
2022/07/08 17:20:09;;;;;;;;;1.00;0.00;;;;;29.57;45.48;102544.97;6165757;23;45331;-89
2022/07/08 17:22:36;;;;;;;;;0.00;0.00;;;;;29.57;45.98;102547.66;6188741;23;46814;-88
2022/07/08 17:25:02;;;;;;;;;0.00;0.00;;;;;29.57;46.31;102550.38;6189972;23;45576;-91
2022/07/08 17:27:28;;;;;;;;;0.00;0.00;;;;;29.54;46.02;102543.19;6162165;23;45328;-89
2022/07/08 17:29:53;;;;;;;;;0.00;0.00;;;;;29.51;46.67;102536.88;6186253;23;45316;-90
2022/07/08 17:32:21;;;;;;;;;1.33;1.00;;;;;29.46;46.70;102539.59;6190268;23;45280;-90
2022/07/08 17:34:47;;;;;;;;;0.00;0.00;;;;;29.40;46.88;102535.16;6159818;23;45173;-90
2022/07/08 17:37:14;;;;;;;;;0.00;0.00;;;;;29.39;47.30;102538.75;6153539;23;45275;-88
2022/07/08 17:39:40;;;;;;;;;0.00;0.00;;;;;29.33;47.27;102536.97;6177191;23;45474;-87
2022/07/08 17:42:05;;;;;;;;;0.00;0.00;;;;;29.32;47.52;102545.13;6180203;23;45729;-87
2022/07/08 17:44:31;;;;;;;;;1.00;0.00;;;;;29.23;47.43;102533.44;6174594;23;45448;-85
2022/07/08 17:46:56;;;;;;;;;0.00;0.00;;;;;29.21;47.68;102539.75;6182735;23;45254;-88
2022/07/08 17:49:22;;;;;;;;;0.50;0.00;;;;;29.16;47.46;102528.97;6153085;23;45429;-86
2022/07/08 17:51:48;;;;;;;;;0.00;0.00;;;;;29.14;47.72;102532.59;6180219;23;46206;-86
2022/07/08 17:54:13;;;;;;;;;0.00;0.00;;;;;29.08;47.96;102520.88;6182981;23;45239;-87
2022/07/08 17:56:39;;;;;;;;;0.00;0.00;;;;;29.07;47.94;102529.00;6183392;23;45250;-86
2022/07/08 17:59:04;;;;;;;;;0.00;0.00;;;;;29.02;48.01;102525.41;6153817;23;45414;-85
2022/07/08 18:01:30;;;;;;;;;0.00;0.00;;;;;29.02;48.09;102539.81;6180156;23;46180;-85
2022/07/08 18:03:56;;;;;;;;;0.00;0.00;;;;;28.97;48.39;102534.41;6179674;23;45395;-84
2022/07/08 18:06:22;;;;;;;;;0.00;0.00;;;;;28.95;48.45;102535.34;6182057;23;45164;-86
2022/07/08 18:08:47;;;;;;;;;4.00;4.00;;;;;28.87;48.46;102529.97;6181712;23;45541;-87
2022/07/08 18:11:12;;;;;;;;;0.00;0.00;;;;;28.85;48.90;102537.19;6178897;23;59063;-85
2022/07/08 18:13:38;;;;;;;;;0.00;0.00;;;;;28.80;49.10;102536.28;6152834;23;46264;-86
2022/07/08 18:16:03;;;;;;;;;0.00;0.00;;;;;28.75;49.10;102529.13;6180823;23;49505;-85
2022/07/08 18:18:29;;;;;;;;;0.33;0.00;;;;;28.73;49.08;102525.53;6178957;23;45391;-86
2022/07/08 18:20:54;;;;;;;;;0.00;0.00;;;;;28.68;49.70;102519.25;6179939;23;45343;-87
2022/07/08 18:23:20;;;;;;;;;0.00;0.00;;;;;28.65;49.52;102530.94;6179563;23;54125;-87
2022/07/08 18:25:45;;;;;;;;;0.00;0.00;;;;;28.59;49.50;102522.84;6181287;23;45350;-87
2022/07/08 18:28:11;;;;;;;;;0.00;0.00;;;;;28.56;49.79;102529.16;6187207;23;44771;-88
2022/07/08 18:30:37;;;;;;;;;1.00;1.00;;;;;28.53;51.92;102526.47;6189919;23;45125;-90
2022/07/08 18:33:04;;;;;;;;;1.00;1.00;;;;;28.49;50.45;102524.69;6161716;23;45511;-92
2022/07/08 18:35:30;;;;;;;;;3.00;1.00;;;;;28.44;51.20;102522.00;6164739;23;45386;-90
2022/07/08 18:37:56;;;;;;;;;0.00;0.00;;;;;28.33;52.08;102502.16;6187312;23;45125;-90
2022/07/08 18:40:22;;;;;;;;;0.00;0.00;;;;;28.32;52.00;102513.88;6155249;23;46095;-88
2022/07/08 18:42:47;;;;;;;;;0.00;0.00;;;;;28.28;52.44;102512.97;6180704;23;45703;-88
2022/07/08 18:45:13;;;;;;;;;2.33;1.67;;;;;28.20;52.01;102510.28;6185831;23;45280;-88
2022/07/08 18:47:42;;;;;;;;;0.00;0.00;;;;;28.17;51.85;102514.78;6185069;23;45275;-88
2022/07/08 18:50:09;;;;;;;;;1.00;0.00;;;;;28.12;52.00;102501.28;6166172;23;47127;-90
2022/07/08 18:52:34;;;;;;;;;0.00;0.00;;;;;28.11;51.65;102502.22;6166047;23;45821;-94
2022/07/08 18:54:59;;;;;;;;;0.00;0.00;;;;;28.06;51.58;102504.91;6167296;23;45347;-94
2022/07/08 18:57:28;;;;;;;;;0.00;0.00;;;;;28.05;51.78;102510.31;6166887;23;45245;-93
2022/07/08 18:59:54;;;;;;;;;0.00;0.00;;;;;28.02;51.99;102510.28;6167473;23;49343;-94
2022/07/08 19:02:19;;;;;;;;;0.00;0.00;;;;;27.97;52.18;102515.69;6169336;23;45453;-94
2022/07/08 19:04:44;;;;;;;;;0.33;0.33;;;;;27.91;52.36;102505.78;6166710;23;66508;-93
2022/07/08 19:07:10;;;;;;;;;0.00;0.00;;;;;27.91;52.31;102507.63;6168095;23;45389;-93
2022/07/08 19:09:37;;;;;;;;;0.00;0.00;;;;;27.87;52.19;102504.00;6165946;23;47086;-93
2022/07/08 19:12:03;;;;;;;;;0.00;0.00;;;;;27.97;52.09;102508.50;6167055;23;45160;-94
2022/07/08 19:14:29;;;;;;;;;1.00;1.00;;;;;27.98;52.20;102510.31;6174389;23;45209;-92
2022/07/08 19:16:54;;;;;;;;;0.00;0.00;;;;;27.94;53.15;102505.81;6173544;23;44827;-93
2022/07/08 19:19:20;;;;;;;;;0.00;0.00;;;;;27.94;53.41;102513.00;6167890;23;48151;-93
2022/07/08 19:21:45;;;;;;;;;0.67;0.00;;;;;27.87;52.97;102506.72;6169487;23;45077;-92
2022/07/08 19:24:13;;;;;;;;;0.00;0.00;;;;;27.82;53.05;102504.00;6196313;23;44640;-94
2022/07/08 19:26:38;;;;;;;;;1.00;1.00;;;;;27.77;54.11;102506.69;6174371;23;45311;-91
2022/07/08 19:29:04;;;;;;;;;1.33;1.33;;;;;27.70;53.50;102507.59;6171423;23;45252;-93
2022/07/08 19:31:29;;;;;;;;;0.00;0.00;;;;;27.70;53.53;102512.06;6171827;23;45620;-91
2022/07/08 19:33:58;;;;;;;;;0.00;0.00;;;;;27.64;54.35;102505.78;6177307;23;45326;-93
2022/07/08 19:36:24;;;;;;;;;3.00;2.00;;;;;27.59;53.81;102503.97;6175260;23;45411;-90
2022/07/08 19:38:49;;;;;;;;;0.33;0.00;;;;;27.53;53.88;102504.84;6178353;22;47079;-92